sensor_id;sensor_type;location;lat;lon;timestamp;P1;durP1;ratioP1;P2;durP2;ratioP2
53108;SDS011;39007;53.090;6.074;2023-04-03T00:00:43;4.53;;;1.58;;
53108;SDS011;39007;53.090;6.074;2023-04-03T00:03:09;4.90;;;1.50;;
53108;SDS011;39007;53.090;6.074;2023-04-03T00:05:35;3.88;;;1.45;;
53108;SDS011;39007;53.090;6.074;2023-04-03T00:08:01;2.75;;;1.30;;
53108;SDS011;39007;53.090;6.074;2023-04-03T00:10:28;3.75;;;1.40;;
53108;SDS011;39007;53.090;6.074;2023-04-03T00:12:54;5.95;;;1.63;;
53108;SDS011;39007;53.090;6.074;2023-04-03T00:15:20;4.72;;;1.42;;
53108;SDS011;39007;53.090;6.074;2023-04-03T00:17:46;4.63;;;1.50;;
53108;SDS011;39007;53.090;6.074;2023-04-03T00:20:12;3.78;;;1.48;;
53108;SDS011;39007;53.090;6.074;2023-04-03T00:22:39;4.65;;;1.50;;
53108;SDS011;39007;53.090;6.074;2023-04-03T00:25:05;3.38;;;1.40;;
53108;SDS011;39007;53.090;6.074;2023-04-03T00:27:31;3.17;;;1.33;;
53108;SDS011;39007;53.090;6.074;2023-04-03T00:29:57;3.38;;;1.30;;
53108;SDS011;39007;53.090;6.074;2023-04-03T00:32:23;4.53;;;1.33;;
53108;SDS011;39007;53.090;6.074;2023-04-03T00:34:49;3.38;;;1.50;;
53108;SDS011;39007;53.090;6.074;2023-04-03T00:37:15;3.10;;;1.27;;
53108;SDS011;39007;53.090;6.074;2023-04-03T00:39:42;4.20;;;1.33;;
53108;SDS011;39007;53.090;6.074;2023-04-03T00:42:08;4.32;;;1.30;;
53108;SDS011;39007;53.090;6.074;2023-04-03T00:47:00;4.03;;;1.60;;
53108;SDS011;39007;53.090;6.074;2023-04-03T00:49:27;3.38;;;1.35;;
53108;SDS011;39007;53.090;6.074;2023-04-03T00:51:53;4.07;;;1.38;;
53108;SDS011;39007;53.090;6.074;2023-04-03T00:54:20;2.78;;;1.20;;
53108;SDS011;39007;53.090;6.074;2023-04-03T00:56:46;3.95;;;1.52;;
53108;SDS011;39007;53.090;6.074;2023-04-03T00:59:14;4.43;;;1.52;;
53108;SDS011;39007;53.090;6.074;2023-04-03T01:01:42;5.63;;;1.42;;
53108;SDS011;39007;53.090;6.074;2023-04-03T01:04:26;3.55;;;1.48;;
53108;SDS011;39007;53.090;6.074;2023-04-03T01:06:53;3.90;;;1.58;;
53108;SDS011;39007;53.090;6.074;2023-04-03T01:09:20;5.30;;;1.48;;
53108;SDS011;39007;53.090;6.074;2023-04-03T01:11:47;4.97;;;1.60;;
53108;SDS011;39007;53.090;6.074;2023-04-03T01:14:13;3.97;;;1.50;;
53108;SDS011;39007;53.090;6.074;2023-04-03T01:16:39;6.38;;;1.52;;
53108;SDS011;39007;53.090;6.074;2023-04-03T01:19:06;4.15;;;1.52;;
53108;SDS011;39007;53.090;6.074;2023-04-03T01:22:35;4.80;;;1.50;;
53108;SDS011;39007;53.090;6.074;2023-04-03T01:24:38;4.88;;;1.60;;
53108;SDS011;39007;53.090;6.074;2023-04-03T01:27:06;5.25;;;1.48;;
53108;SDS011;39007;53.090;6.074;2023-04-03T01:29:32;3.63;;;1.40;;
53108;SDS011;39007;53.090;6.074;2023-04-03T01:32:00;6.22;;;1.73;;
53108;SDS011;39007;53.090;6.074;2023-04-03T01:34:27;3.88;;;1.45;;
53108;SDS011;39007;53.090;6.074;2023-04-03T01:36:53;4.78;;;1.50;;
53108;SDS011;39007;53.090;6.074;2023-04-03T01:39:19;5.35;;;1.60;;
53108;SDS011;39007;53.090;6.074;2023-04-03T01:41:46;4.55;;;1.40;;
53108;SDS011;39007;53.090;6.074;2023-04-03T01:44:12;3.70;;;1.23;;
53108;SDS011;39007;53.090;6.074;2023-04-03T01:46:38;3.45;;;1.48;;
53108;SDS011;39007;53.090;6.074;2023-04-03T01:49:04;4.95;;;1.60;;
53108;SDS011;39007;53.090;6.074;2023-04-03T01:51:30;6.90;;;1.67;;
53108;SDS011;39007;53.090;6.074;2023-04-03T01:53:58;5.60;;;1.60;;
53108;SDS011;39007;53.090;6.074;2023-04-03T01:56:24;3.63;;;1.55;;
53108;SDS011;39007;53.090;6.074;2023-04-03T01:58:50;6.55;;;1.70;;
53108;SDS011;39007;53.090;6.074;2023-04-03T02:01:16;4.45;;;1.77;;
53108;SDS011;39007;53.090;6.074;2023-04-03T02:03:43;6.25;;;2.00;;
53108;SDS011;39007;53.090;6.074;2023-04-03T02:06:09;4.55;;;1.55;;
53108;SDS011;39007;53.090;6.074;2023-04-03T02:08:35;4.18;;;1.65;;
53108;SDS011;39007;53.090;6.074;2023-04-03T02:11:01;5.75;;;1.70;;
53108;SDS011;39007;53.090;6.074;2023-04-03T02:13:27;6.10;;;1.70;;
53108;SDS011;39007;53.090;6.074;2023-04-03T02:15:53;5.78;;;2.13;;
53108;SDS011;39007;53.090;6.074;2023-04-03T02:18:20;4.50;;;1.80;;
53108;SDS011;39007;53.090;6.074;2023-04-03T02:20:46;4.35;;;1.48;;
53108;SDS011;39007;53.090;6.074;2023-04-03T02:23:13;6.43;;;1.98;;
53108;SDS011;39007;53.090;6.074;2023-04-03T02:25:39;4.38;;;1.70;;
53108;SDS011;39007;53.090;6.074;2023-04-03T02:28:05;5.00;;;1.70;;
53108;SDS011;39007;53.090;6.074;2023-04-03T02:30:32;8.32;;;1.60;;
53108;SDS011;39007;53.090;6.074;2023-04-03T02:32:58;5.57;;;2.15;;
53108;SDS011;39007;53.090;6.074;2023-04-03T02:35:24;8.68;;;2.00;;
53108;SDS011;39007;53.090;6.074;2023-04-03T02:37:50;5.85;;;1.70;;
53108;SDS011;39007;53.090;6.074;2023-04-03T02:40:16;5.53;;;1.80;;
53108;SDS011;39007;53.090;6.074;2023-04-03T02:42:42;5.28;;;1.88;;
53108;SDS011;39007;53.090;6.074;2023-04-03T02:45:08;5.00;;;1.63;;
53108;SDS011;39007;53.090;6.074;2023-04-03T02:47:35;5.03;;;2.00;;
53108;SDS011;39007;53.090;6.074;2023-04-03T02:50:01;7.72;;;2.08;;
53108;SDS011;39007;53.090;6.074;2023-04-03T02:52:27;6.07;;;2.05;;
53108;SDS011;39007;53.090;6.074;2023-04-03T02:54:53;6.20;;;2.20;;
53108;SDS011;39007;53.090;6.074;2023-04-03T02:57:19;7.88;;;1.90;;
53108;SDS011;39007;53.090;6.074;2023-04-03T02:59:45;6.78;;;1.95;;
53108;SDS011;39007;53.090;6.074;2023-04-03T03:02:11;5.65;;;2.15;;
53108;SDS011;39007;53.090;6.074;2023-04-03T03:04:37;6.78;;;2.00;;
53108;SDS011;39007;53.090;6.074;2023-04-03T03:07:03;7.03;;;1.75;;
53108;SDS011;39007;53.090;6.074;2023-04-03T03:09:29;7.13;;;1.90;;
53108;SDS011;39007;53.090;6.074;2023-04-03T03:11:56;5.93;;;1.75;;
53108;SDS011;39007;53.090;6.074;2023-04-03T03:14:22;5.90;;;2.15;;
53108;SDS011;39007;53.090;6.074;2023-04-03T03:16:48;5.57;;;1.88;;
53108;SDS011;39007;53.090;6.074;2023-04-03T03:19:15;8.10;;;1.90;;
53108;SDS011;39007;53.090;6.074;2023-04-03T03:21:41;5.15;;;2.05;;
53108;SDS011;39007;53.090;6.074;2023-04-03T03:24:07;5.57;;;1.90;;
53108;SDS011;39007;53.090;6.074;2023-04-03T03:26:34;9.75;;;2.30;;
53108;SDS011;39007;53.090;6.074;2023-04-03T03:29:00;5.30;;;1.95;;
53108;SDS011;39007;53.090;6.074;2023-04-03T03:31:27;7.82;;;2.17;;
53108;SDS011;39007;53.090;6.074;2023-04-03T03:33:53;5.40;;;1.90;;
53108;SDS011;39007;53.090;6.074;2023-04-03T03:36:19;8.20;;;2.30;;
53108;SDS011;39007;53.090;6.074;2023-04-03T03:38:45;11.90;;;2.50;;
53108;SDS011;39007;53.090;6.074;2023-04-03T03:41:11;6.25;;;2.15;;
53108;SDS011;39007;53.090;6.074;2023-04-03T03:43:37;6.00;;;2.13;;
53108;SDS011;39007;53.090;6.074;2023-04-03T03:46:04;6.72;;;2.30;;
53108;SDS011;39007;53.090;6.074;2023-04-03T03:48:30;5.68;;;1.98;;
53108;SDS011;39007;53.090;6.074;2023-04-03T03:50:56;7.47;;;2.25;;
53108;SDS011;39007;53.090;6.074;2023-04-03T03:53:22;6.38;;;2.47;;
53108;SDS011;39007;53.090;6.074;2023-04-03T03:55:48;6.00;;;2.22;;
53108;SDS011;39007;53.090;6.074;2023-04-03T03:58:14;10.68;;;2.83;;
53108;SDS011;39007;53.090;6.074;2023-04-03T04:00:40;6.85;;;2.38;;
53108;SDS011;39007;53.090;6.074;2023-04-03T04:03:06;8.50;;;2.60;;
53108;SDS011;39007;53.090;6.074;2023-04-03T04:05:32;7.13;;;2.25;;
53108;SDS011;39007;53.090;6.074;2023-04-03T04:07:58;7.78;;;2.42;;
53108;SDS011;39007;53.090;6.074;2023-04-03T04:10:24;7.97;;;2.55;;
53108;SDS011;39007;53.090;6.074;2023-04-03T04:12:50;7.38;;;2.40;;
53108;SDS011;39007;53.090;6.074;2023-04-03T04:15:16;5.88;;;2.13;;
53108;SDS011;39007;53.090;6.074;2023-04-03T04:17:43;6.45;;;2.20;;
53108;SDS011;39007;53.090;6.074;2023-04-03T04:20:09;8.68;;;2.53;;
53108;SDS011;39007;53.090;6.074;2023-04-03T04:22:35;8.07;;;2.22;;
53108;SDS011;39007;53.090;6.074;2023-04-03T04:25:02;7.30;;;2.50;;
53108;SDS011;39007;53.090;6.074;2023-04-03T04:27:29;5.65;;;2.10;;
53108;SDS011;39007;53.090;6.074;2023-04-03T04:29:55;7.45;;;2.58;;
53108;SDS011;39007;53.090;6.074;2023-04-03T04:32:21;8.20;;;2.55;;
53108;SDS011;39007;53.090;6.074;2023-04-03T04:34:47;7.90;;;2.58;;
53108;SDS011;39007;53.090;6.074;2023-04-03T04:37:13;6.65;;;2.50;;
53108;SDS011;39007;53.090;6.074;2023-04-03T04:39:39;10.05;;;2.60;;
53108;SDS011;39007;53.090;6.074;2023-04-03T04:42:05;6.30;;;2.47;;
53108;SDS011;39007;53.090;6.074;2023-04-03T04:44:32;6.32;;;2.50;;
53108;SDS011;39007;53.090;6.074;2023-04-03T04:46:58;10.32;;;2.65;;
53108;SDS011;39007;53.090;6.074;2023-04-03T04:49:24;7.70;;;2.45;;
53108;SDS011;39007;53.090;6.074;2023-04-03T04:51:50;8.48;;;2.40;;
53108;SDS011;39007;53.090;6.074;2023-04-03T04:54:16;8.48;;;2.75;;
53108;SDS011;39007;53.090;6.074;2023-04-03T04:56:42;8.20;;;2.60;;
53108;SDS011;39007;53.090;6.074;2023-04-03T04:59:08;7.35;;;2.42;;
53108;SDS011;39007;53.090;6.074;2023-04-03T05:01:35;6.55;;;2.50;;
53108;SDS011;39007;53.090;6.074;2023-04-03T05:04:01;9.98;;;2.90;;
53108;SDS011;39007;53.090;6.074;2023-04-03T05:06:27;7.97;;;2.78;;
53108;SDS011;39007;53.090;6.074;2023-04-03T05:08:55;14.68;;;2.88;;
53108;SDS011;39007;53.090;6.074;2023-04-03T05:11:21;6.43;;;2.60;;
53108;SDS011;39007;53.090;6.074;2023-04-03T05:13:47;5.80;;;2.67;;
53108;SDS011;39007;53.090;6.074;2023-04-03T05:16:13;9.50;;;2.65;;
53108;SDS011;39007;53.090;6.074;2023-04-03T05:18:39;6.93;;;2.55;;
53108;SDS011;39007;53.090;6.074;2023-04-03T05:21:05;7.47;;;2.70;;
53108;SDS011;39007;53.090;6.074;2023-04-03T05:23:31;7.65;;;2.60;;
53108;SDS011;39007;53.090;6.074;2023-04-03T05:25:57;8.55;;;2.63;;
53108;SDS011;39007;53.090;6.074;2023-04-03T05:28:23;9.05;;;2.88;;
53108;SDS011;39007;53.090;6.074;2023-04-03T05:30:56;6.97;;;2.53;;
53108;SDS011;39007;53.090;6.074;2023-04-03T05:33:22;10.43;;;3.20;;
53108;SDS011;39007;53.090;6.074;2023-04-03T05:35:48;7.30;;;2.75;;
53108;SDS011;39007;53.090;6.074;2023-04-03T05:38:14;7.68;;;2.97;;
53108;SDS011;39007;53.090;6.074;2023-04-03T05:40:41;7.90;;;2.70;;
53108;SDS011;39007;53.090;6.074;2023-04-03T05:43:07;8.60;;;2.63;;
53108;SDS011;39007;53.090;6.074;2023-04-03T05:45:33;6.65;;;2.70;;
53108;SDS011;39007;53.090;6.074;2023-04-03T05:47:59;12.93;;;3.38;;
53108;SDS011;39007;53.090;6.074;2023-04-03T05:50:25;9.25;;;2.63;;
53108;SDS011;39007;53.090;6.074;2023-04-03T05:52:52;7.70;;;2.90;;
53108;SDS011;39007;53.090;6.074;2023-04-03T05:55:19;11.95;;;2.72;;
53108;SDS011;39007;53.090;6.074;2023-04-03T05:57:45;8.63;;;3.10;;
53108;SDS011;39007;53.090;6.074;2023-04-03T06:00:12;10.70;;;2.72;;
53108;SDS011;39007;53.090;6.074;2023-04-03T06:02:40;7.30;;;3.08;;
53108;SDS011;39007;53.090;6.074;2023-04-03T06:05:07;7.88;;;2.78;;
53108;SDS011;39007;53.090;6.074;2023-04-03T06:07:34;10.25;;;3.40;;
53108;SDS011;39007;53.090;6.074;2023-04-03T06:10:00;12.00;;;3.08;;
53108;SDS011;39007;53.090;6.074;2023-04-03T06:12:27;8.55;;;3.13;;
53108;SDS011;39007;53.090;6.074;2023-04-03T06:14:55;11.15;;;2.92;;
53108;SDS011;39007;53.090;6.074;2023-04-03T06:17:22;11.90;;;3.17;;
53108;SDS011;39007;53.090;6.074;2023-04-03T06:19:48;8.18;;;3.13;;
53108;SDS011;39007;53.090;6.074;2023-04-03T06:22:15;7.00;;;2.90;;
53108;SDS011;39007;53.090;6.074;2023-04-03T06:24:41;7.88;;;3.13;;
53108;SDS011;39007;53.090;6.074;2023-04-03T06:27:09;13.65;;;3.40;;
53108;SDS011;39007;53.090;6.074;2023-04-03T06:29:36;8.70;;;2.88;;
53108;SDS011;39007;53.090;6.074;2023-04-03T06:32:02;8.85;;;3.08;;
53108;SDS011;39007;53.090;6.074;2023-04-03T06:34:28;8.13;;;2.80;;
53108;SDS011;39007;53.090;6.074;2023-04-03T06:36:54;11.50;;;3.70;;
53108;SDS011;39007;53.090;6.074;2023-04-03T06:39:21;8.93;;;3.08;;
53108;SDS011;39007;53.090;6.074;2023-04-03T06:41:47;8.70;;;3.10;;
53108;SDS011;39007;53.090;6.074;2023-04-03T06:44:14;8.95;;;3.28;;
53108;SDS011;39007;53.090;6.074;2023-04-03T06:46:41;7.45;;;2.80;;
53108;SDS011;39007;53.090;6.074;2023-04-03T06:49:07;9.90;;;3.22;;
53108;SDS011;39007;53.090;6.074;2023-04-03T06:51:34;11.63;;;3.58;;
53108;SDS011;39007;53.090;6.074;2023-04-03T06:54:01;11.57;;;3.35;;
53108;SDS011;39007;53.090;6.074;2023-04-03T06:56:27;9.77;;;3.05;;
53108;SDS011;39007;53.090;6.074;2023-04-03T06:58:53;9.05;;;3.30;;
53108;SDS011;39007;53.090;6.074;2023-04-03T07:01:22;7.90;;;3.00;;
53108;SDS011;39007;53.090;6.074;2023-04-03T07:03:48;9.52;;;3.10;;
53108;SDS011;39007;53.090;6.074;2023-04-03T07:06:15;10.85;;;3.30;;
53108;SDS011;39007;53.090;6.074;2023-04-03T07:08:41;7.78;;;3.42;;
53108;SDS011;39007;53.090;6.074;2023-04-03T07:11:08;9.45;;;3.25;;
53108;SDS011;39007;53.090;6.074;2023-04-03T07:13:34;9.32;;;3.10;;
53108;SDS011;39007;53.090;6.074;2023-04-03T07:16:01;8.90;;;3.13;;
53108;SDS011;39007;53.090;6.074;2023-04-03T07:18:28;9.82;;;3.00;;
53108;SDS011;39007;53.090;6.074;2023-04-03T07:20:55;11.65;;;3.75;;
53108;SDS011;39007;53.090;6.074;2023-04-03T07:23:21;9.27;;;3.00;;
53108;SDS011;39007;53.090;6.074;2023-04-03T07:25:48;7.78;;;2.88;;
53108;SDS011;39007;53.090;6.074;2023-04-03T07:28:14;10.35;;;3.13;;
53108;SDS011;39007;53.090;6.074;2023-04-03T07:30:44;8.52;;;2.90;;
53108;SDS011;39007;53.090;6.074;2023-04-03T07:33:11;10.13;;;3.30;;
53108;SDS011;39007;53.090;6.074;2023-04-03T07:35:38;10.00;;;3.03;;
53108;SDS011;39007;53.090;6.074;2023-04-03T07:38:04;8.57;;;3.20;;
53108;SDS011;39007;53.090;6.074;2023-04-03T07:40:31;8.30;;;2.97;;
53108;SDS011;39007;53.090;6.074;2023-04-03T07:42:57;7.43;;;2.55;;
53108;SDS011;39007;53.090;6.074;2023-04-03T07:45:24;8.35;;;3.00;;
53108;SDS011;39007;53.090;6.074;2023-04-03T07:47:50;7.57;;;2.80;;
53108;SDS011;39007;53.090;6.074;2023-04-03T07:50:16;7.43;;;2.70;;
53108;SDS011;39007;53.090;6.074;2023-04-03T07:52:42;7.97;;;2.50;;
53108;SDS011;39007;53.090;6.074;2023-04-03T07:55:09;11.23;;;2.70;;
53108;SDS011;39007;53.090;6.074;2023-04-03T07:57:35;7.43;;;2.47;;
53108;SDS011;39007;53.090;6.074;2023-04-03T08:00:05;10.27;;;2.72;;
53108;SDS011;39007;53.090;6.074;2023-04-03T08:02:31;7.55;;;2.60;;
53108;SDS011;39007;53.090;6.074;2023-04-03T08:04:58;6.55;;;2.60;;
53108;SDS011;39007;53.090;6.074;2023-04-03T08:07:24;6.00;;;2.22;;
53108;SDS011;39007;53.090;6.074;2023-04-03T08:09:51;7.53;;;2.40;;
53108;SDS011;39007;53.090;6.074;2023-04-03T08:12:17;8.38;;;2.42;;
53108;SDS011;39007;53.090;6.074;2023-04-03T08:14:43;9.27;;;2.63;;
53108;SDS011;39007;53.090;6.074;2023-04-03T08:17:09;6.07;;;2.10;;
53108;SDS011;39007;53.090;6.074;2023-04-03T08:19:39;6.03;;;2.42;;
53108;SDS011;39007;53.090;6.074;2023-04-03T08:22:05;5.18;;;2.03;;
53108;SDS011;39007;53.090;6.074;2023-04-03T08:24:32;8.32;;;2.10;;
53108;SDS011;39007;53.090;6.074;2023-04-03T08:26:58;5.25;;;2.10;;
53108;SDS011;39007;53.090;6.074;2023-04-03T08:29:24;6.70;;;2.10;;
53108;SDS011;39007;53.090;6.074;2023-04-03T08:31:50;7.47;;;2.20;;
53108;SDS011;39007;53.090;6.074;2023-04-03T08:34:17;6.60;;;2.10;;
53108;SDS011;39007;53.090;6.074;2023-04-03T08:36:44;6.70;;;2.30;;
53108;SDS011;39007;53.090;6.074;2023-04-03T08:39:10;6.88;;;2.35;;
53108;SDS011;39007;53.090;6.074;2023-04-03T08:46:53;4.50;;;1.77;;
53108;SDS011;39007;53.090;6.074;2023-04-03T08:49:28;7.03;;;1.73;;
53108;SDS011;39007;53.090;6.074;2023-04-03T08:51:56;7.32;;;2.33;;
53108;SDS011;39007;53.090;6.074;2023-04-03T08:54:24;4.75;;;1.90;;
53108;SDS011;39007;53.090;6.074;2023-04-03T08:56:52;6.47;;;2.30;;
53108;SDS011;39007;53.090;6.074;2023-04-03T08:59:21;5.68;;;1.73;;
53108;SDS011;39007;53.090;6.074;2023-04-03T09:01:50;7.13;;;1.95;;
53108;SDS011;39007;53.090;6.074;2023-04-03T09:04:16;4.78;;;1.70;;
53108;SDS011;39007;53.090;6.074;2023-04-03T09:06:44;6.78;;;2.22;;
53108;SDS011;39007;53.090;6.074;2023-04-03T09:11:48;5.18;;;1.90;;
53108;SDS011;39007;53.090;6.074;2023-04-03T09:14:33;4.93;;;1.88;;
53108;SDS011;39007;53.090;6.074;2023-04-03T09:25:10;4.35;;;1.60;;
53108;SDS011;39007;53.090;6.074;2023-04-03T09:30:04;5.63;;;2.17;;
53108;SDS011;39007;53.090;6.074;2023-04-03T09:32:35;6.38;;;1.85;;
53108;SDS011;39007;53.090;6.074;2023-04-03T09:35:16;4.43;;;1.70;;
53108;SDS011;39007;53.090;6.074;2023-04-03T09:37:44;4.97;;;1.70;;
53108;SDS011;39007;53.090;6.074;2023-04-03T09:42:57;5.85;;;1.90;;
53108;SDS011;39007;53.090;6.074;2023-04-03T09:45:28;5.15;;;1.48;;
53108;SDS011;39007;53.090;6.074;2023-04-03T09:48:05;4.82;;;1.40;;
53108;SDS011;39007;53.090;6.074;2023-04-03T09:50:32;3.63;;;1.58;;
53108;SDS011;39007;53.090;6.074;2023-04-03T09:52:58;4.05;;;1.70;;
53108;SDS011;39007;53.090;6.074;2023-04-03T09:55:25;6.65;;;1.70;;
53108;SDS011;39007;53.090;6.074;2023-04-03T09:57:54;4.60;;;1.77;;
53108;SDS011;39007;53.090;6.074;2023-04-03T10:00:22;3.20;;;1.52;;
53108;SDS011;39007;53.090;6.074;2023-04-03T10:02:49;3.95;;;1.40;;
53108;SDS011;39007;53.090;6.074;2023-04-03T10:10:43;6.07;;;1.60;;
53108;SDS011;39007;53.090;6.074;2023-04-03T10:13:11;4.10;;;1.85;;
53108;SDS011;39007;53.090;6.074;2023-04-03T10:15:43;3.63;;;1.50;;
53108;SDS011;39007;53.090;6.074;2023-04-03T10:21:06;5.60;;;1.60;;
53108;SDS011;39007;53.090;6.074;2023-04-03T10:23:40;3.92;;;1.40;;
53108;SDS011;39007;53.090;6.074;2023-04-03T10:26:26;4.28;;;1.50;;
53108;SDS011;39007;53.090;6.074;2023-04-03T10:31:23;4.35;;;1.60;;
53108;SDS011;39007;53.090;6.074;2023-04-03T10:34:00;4.57;;;1.50;;
53108;SDS011;39007;53.090;6.074;2023-04-03T10:36:38;3.80;;;1.50;;
53108;SDS011;39007;53.090;6.074;2023-04-03T10:39:24;4.35;;;1.40;;
53108;SDS011;39007;53.090;6.074;2023-04-03T10:44:27;4.30;;;1.45;;
53108;SDS011;39007;53.090;6.074;2023-04-03T10:47:02;4.05;;;1.55;;
53108;SDS011;39007;53.090;6.074;2023-04-03T10:49:36;3.15;;;1.20;;
53108;SDS011;39007;53.090;6.074;2023-04-03T10:57:21;4.25;;;1.33;;
53108;SDS011;39007;53.090;6.074;2023-04-03T10:59:51;5.65;;;1.70;;
53108;SDS011;39007;53.090;6.074;2023-04-03T11:02:26;4.15;;;1.40;;
53108;SDS011;39007;53.090;6.074;2023-04-03T11:04:56;4.63;;;1.45;;
53108;SDS011;39007;53.090;6.074;2023-04-03T11:07:27;5.22;;;1.30;;
53108;SDS011;39007;53.090;6.074;2023-04-03T11:09:57;4.63;;;1.42;;
53108;SDS011;39007;53.090;6.074;2023-04-03T11:12:26;6.05;;;1.63;;
53108;SDS011;39007;53.090;6.074;2023-04-03T11:14:55;3.50;;;1.45;;
53108;SDS011;39007;53.090;6.074;2023-04-03T11:22:25;5.03;;;1.40;;
53108;SDS011;39007;53.090;6.074;2023-04-03T11:25:02;3.20;;;1.30;;
53108;SDS011;39007;53.090;6.074;2023-04-03T11:27:30;3.08;;;1.30;;
53108;SDS011;39007;53.090;6.074;2023-04-03T11:29:59;5.40;;;1.30;;
53108;SDS011;39007;53.090;6.074;2023-04-03T11:34:52;6.40;;;1.40;;
53108;SDS011;39007;53.090;6.074;2023-04-03T11:40:17;4.32;;;1.40;;
53108;SDS011;39007;53.090;6.074;2023-04-03T11:42:38;4.45;;;1.58;;
53108;SDS011;39007;53.090;6.074;2023-04-03T11:52:57;4.22;;;1.40;;
53108;SDS011;39007;53.090;6.074;2023-04-03T12:08:27;3.40;;;1.48;;
53108;SDS011;39007;53.090;6.074;2023-04-03T12:21:16;5.30;;;1.50;;
53108;SDS011;39007;53.090;6.074;2023-04-03T12:40:02;4.75;;;1.60;;
53108;SDS011;39007;53.090;6.074;2023-04-03T12:45:08;5.47;;;1.70;;
53108;SDS011;39007;53.090;6.074;2023-04-03T12:47:36;4.90;;;1.70;;
53108;SDS011;39007;53.090;6.074;2023-04-03T12:50:16;3.67;;;1.52;;
53108;SDS011;39007;53.090;6.074;2023-04-03T12:52:47;3.95;;;1.40;;
53108;SDS011;39007;53.090;6.074;2023-04-03T12:55:16;3.88;;;1.42;;
53108;SDS011;39007;53.090;6.074;2023-04-03T12:57:43;3.70;;;1.25;;
53108;SDS011;39007;53.090;6.074;2023-04-03T13:00:29;4.15;;;1.42;;
53108;SDS011;39007;53.090;6.074;2023-04-03T13:02:55;4.85;;;1.70;;
53108;SDS011;39007;53.090;6.074;2023-04-03T13:05:22;3.45;;;1.45;;
53108;SDS011;39007;53.090;6.074;2023-04-03T13:07:49;5.53;;;1.60;;
53108;SDS011;39007;53.090;6.074;2023-04-03T13:10:16;3.10;;;1.40;;
53108;SDS011;39007;53.090;6.074;2023-04-03T13:12:58;3.63;;;1.58;;
53108;SDS011;39007;53.090;6.074;2023-04-03T13:15:45;4.28;;;1.60;;
53108;SDS011;39007;53.090;6.074;2023-04-03T13:20:57;4.32;;;1.50;;
53108;SDS011;39007;53.090;6.074;2023-04-03T13:23:24;5.72;;;2.20;;
53108;SDS011;39007;53.090;6.074;2023-04-03T13:25:50;3.13;;;1.38;;
53108;SDS011;39007;53.090;6.074;2023-04-03T13:28:19;5.38;;;1.60;;
53108;SDS011;39007;53.090;6.074;2023-04-03T13:31:46;4.22;;;1.60;;
53108;SDS011;39007;53.090;6.074;2023-04-03T13:33:43;5.65;;;1.80;;
53108;SDS011;39007;53.090;6.074;2023-04-03T13:36:17;5.85;;;1.63;;
53108;SDS011;39007;53.090;6.074;2023-04-03T13:38:44;6.05;;;1.75;;
53108;SDS011;39007;53.090;6.074;2023-04-03T13:41:24;3.70;;;1.70;;
53108;SDS011;39007;53.090;6.074;2023-04-03T13:43:51;5.55;;;1.92;;
53108;SDS011;39007;53.090;6.074;2023-04-03T13:48:47;5.07;;;2.10;;
53108;SDS011;39007;53.090;6.074;2023-04-03T13:53:48;6.82;;;2.03;;
53108;SDS011;39007;53.090;6.074;2023-04-03T13:56:19;5.25;;;1.83;;
53108;SDS011;39007;53.090;6.074;2023-04-03T13:58:56;4.70;;;1.90;;
53108;SDS011;39007;53.090;6.074;2023-04-03T14:01:23;5.05;;;1.80;;
53108;SDS011;39007;53.090;6.074;2023-04-03T14:03:54;4.55;;;1.70;;
53108;SDS011;39007;53.090;6.074;2023-04-03T14:06:20;3.75;;;1.60;;
53108;SDS011;39007;53.090;6.074;2023-04-03T14:08:47;4.25;;;1.60;;
53108;SDS011;39007;53.090;6.074;2023-04-03T14:11:24;12.05;;;6.85;;
53108;SDS011;39007;53.090;6.074;2023-04-03T14:13:52;4.68;;;1.70;;
53108;SDS011;39007;53.090;6.074;2023-04-03T14:16:19;6.15;;;1.95;;
53108;SDS011;39007;53.090;6.074;2023-04-03T14:18:46;5.95;;;1.90;;
53108;SDS011;39007;53.090;6.074;2023-04-03T14:21:14;5.90;;;1.80;;
53108;SDS011;39007;53.090;6.074;2023-04-03T14:23:40;6.85;;;1.75;;
53108;SDS011;39007;53.090;6.074;2023-04-03T14:26:11;4.05;;;1.75;;
53108;SDS011;39007;53.090;6.074;2023-04-03T14:28:37;4.85;;;1.77;;
53108;SDS011;39007;53.090;6.074;2023-04-03T14:31:05;5.07;;;1.98;;
53108;SDS011;39007;53.090;6.074;2023-04-03T14:33:32;6.80;;;1.88;;
53108;SDS011;39007;53.090;6.074;2023-04-03T14:36:01;4.20;;;1.63;;
53108;SDS011;39007;53.090;6.074;2023-04-03T14:38:28;6.07;;;1.80;;
53108;SDS011;39007;53.090;6.074;2023-04-03T14:40:55;3.63;;;1.75;;
53108;SDS011;39007;53.090;6.074;2023-04-03T14:43:21;4.13;;;1.70;;
53108;SDS011;39007;53.090;6.074;2023-04-03T14:45:48;4.28;;;1.75;;
53108;SDS011;39007;53.090;6.074;2023-04-03T14:48:19;4.20;;;1.90;;
53108;SDS011;39007;53.090;6.074;2023-04-03T14:50:46;6.53;;;1.88;;
53108;SDS011;39007;53.090;6.074;2023-04-03T14:53:12;5.45;;;1.83;;
53108;SDS011;39007;53.090;6.074;2023-04-03T14:55:40;4.30;;;1.80;;
53108;SDS011;39007;53.090;6.074;2023-04-03T14:58:08;3.63;;;1.50;;
53108;SDS011;39007;53.090;6.074;2023-04-03T15:00:34;4.68;;;1.92;;
53108;SDS011;39007;53.090;6.074;2023-04-03T15:03:00;3.55;;;1.60;;
53108;SDS011;39007;53.090;6.074;2023-04-03T15:05:26;2.95;;;1.40;;
53108;SDS011;39007;53.090;6.074;2023-04-03T15:07:53;4.30;;;1.60;;
53108;SDS011;39007;53.090;6.074;2023-04-03T15:12:46;4.38;;;1.50;;
53108;SDS011;39007;53.090;6.074;2023-04-03T15:15:13;3.72;;;1.50;;
53108;SDS011;39007;53.090;6.074;2023-04-03T15:17:39;4.90;;;1.70;;
53108;SDS011;39007;53.090;6.074;2023-04-03T15:20:11;4.70;;;1.55;;
53108;SDS011;39007;53.090;6.074;2023-04-03T15:22:38;4.85;;;1.50;;
53108;SDS011;39007;53.090;6.074;2023-04-03T15:25:04;5.88;;;2.35;;
53108;SDS011;39007;53.090;6.074;2023-04-03T15:27:30;6.07;;;2.03;;
53108;SDS011;39007;53.090;6.074;2023-04-03T15:29:56;5.20;;;2.13;;
53108;SDS011;39007;53.090;6.074;2023-04-03T15:32:22;4.95;;;1.90;;
53108;SDS011;39007;53.090;6.074;2023-04-03T15:34:48;4.47;;;1.90;;
53108;SDS011;39007;53.090;6.074;2023-04-03T15:37:15;5.25;;;1.90;;
53108;SDS011;39007;53.090;6.074;2023-04-03T15:39:41;5.95;;;2.25;;
53108;SDS011;39007;53.090;6.074;2023-04-03T15:42:07;5.20;;;2.00;;
53108;SDS011;39007;53.090;6.074;2023-04-03T15:44:33;5.15;;;2.00;;
53108;SDS011;39007;53.090;6.074;2023-04-03T15:47:00;4.97;;;1.90;;
53108;SDS011;39007;53.090;6.074;2023-04-03T15:49:27;7.00;;;2.22;;
53108;SDS011;39007;53.090;6.074;2023-04-03T15:51:53;5.68;;;2.10;;
53108;SDS011;39007;53.090;6.074;2023-04-03T15:54:19;5.85;;;1.83;;
53108;SDS011;39007;53.090;6.074;2023-04-03T15:56:45;4.22;;;1.90;;
53108;SDS011;39007;53.090;6.074;2023-04-03T15:59:11;4.82;;;1.92;;
53108;SDS011;39007;53.090;6.074;2023-04-03T16:01:37;4.55;;;1.77;;
53108;SDS011;39007;53.090;6.074;2023-04-03T16:04:05;6.97;;;2.00;;
53108;SDS011;39007;53.090;6.074;2023-04-03T16:06:31;5.82;;;2.00;;
53108;SDS011;39007;53.090;6.074;2023-04-03T16:08:58;5.80;;;1.90;;
53108;SDS011;39007;53.090;6.074;2023-04-03T16:11:25;5.43;;;1.77;;
53108;SDS011;39007;53.090;6.074;2023-04-03T16:13:51;5.38;;;1.83;;
53108;SDS011;39007;53.090;6.074;2023-04-03T16:16:18;4.95;;;1.52;;
53108;SDS011;39007;53.090;6.074;2023-04-03T16:18:44;6.53;;;1.70;;
53108;SDS011;39007;53.090;6.074;2023-04-03T16:21:12;5.82;;;1.88;;
53108;SDS011;39007;53.090;6.074;2023-04-03T16:23:38;6.35;;;1.80;;
53108;SDS011;39007;53.090;6.074;2023-04-03T16:26:05;5.65;;;1.80;;
53108;SDS011;39007;53.090;6.074;2023-04-03T16:28:31;6.20;;;1.90;;
53108;SDS011;39007;53.090;6.074;2023-04-03T16:30:57;3.53;;;1.50;;
53108;SDS011;39007;53.090;6.074;2023-04-03T16:33:23;4.00;;;1.67;;
53108;SDS011;39007;53.090;6.074;2023-04-03T16:35:50;3.17;;;1.38;;
53108;SDS011;39007;53.090;6.074;2023-04-03T16:38:17;7.45;;;2.10;;
53108;SDS011;39007;53.090;6.074;2023-04-03T16:40:44;4.40;;;2.15;;
53108;SDS011;39007;53.090;6.074;2023-04-03T16:43:10;3.92;;;1.50;;